createdAt,value
2019-05-02T00:00:55.187Z,7.50
2019-05-02T00:01:55.161Z,7.80
2019-05-02T00:02:55.137Z,7.10
2019-05-02T00:03:55.114Z,7.40
2019-05-02T00:04:55.879Z,7.60
2019-05-02T00:05:55.062Z,7.80
2019-05-02T00:06:55.038Z,7.50
2019-05-02T00:07:58.499Z,7.60
2019-05-02T00:08:54.989Z,7.50
2019-05-02T00:09:54.964Z,7.90
2019-05-02T00:10:54.939Z,7.20
2019-05-02T00:11:58.922Z,7.70
2019-05-02T00:12:54.889Z,7.40
2019-05-02T00:13:54.864Z,7.50
2019-05-02T00:14:56.590Z,7.30
2019-05-02T00:15:54.814Z,7.80
2019-05-02T00:16:54.790Z,7.20
2019-05-02T00:17:56.887Z,7.10
2019-05-02T00:18:54.740Z,7.50
2019-05-02T00:19:54.715Z,7.30
2019-05-02T00:20:57.110Z,7.30
2019-05-02T00:21:54.664Z,7.00
2019-05-02T00:22:54.640Z,7.70
2019-05-02T00:23:58.967Z,7.40
2019-05-02T00:24:54.591Z,7.50
2019-05-02T00:25:54.565Z,7.40
2019-05-02T00:26:56.079Z,7.80
2019-05-02T00:27:54.515Z,7.90
2019-05-02T00:28:54.491Z,8.10
2019-05-02T00:29:58.845Z,8.40
2019-05-02T00:30:54.439Z,8.20
2019-05-02T00:31:54.414Z,7.70
2019-05-02T00:32:58.306Z,7.20
2019-05-02T00:33:54.364Z,6.90
2019-05-02T00:34:54.341Z,7.60
2019-05-02T00:35:54.314Z,7.30
2019-05-02T00:36:54.289Z,7.90
2019-05-02T00:37:57.476Z,7.90
2019-05-02T00:38:54.238Z,7.60
2019-05-02T00:39:54.213Z,7.90
2019-05-02T00:40:57.330Z,7.80
2019-05-02T00:41:54.162Z,7.80
2019-05-02T00:42:58.271Z,7.70
2019-05-02T00:43:54.112Z,8.00
2019-05-02T00:44:54.088Z,7.70
2019-05-02T00:45:55.003Z,7.50
2019-05-02T00:46:54.035Z,8.00
2019-05-02T00:47:54.013Z,8.00
2019-05-02T00:48:59.076Z,8.20
2019-05-02T00:49:53.959Z,8.30
2019-05-02T00:50:53.934Z,8.30
2019-05-02T00:51:56.637Z,8.40
2019-05-02T00:52:53.884Z,8.10
2019-05-02T00:53:53.859Z,7.50
2019-05-02T00:54:54.976Z,8.60
2019-05-02T00:55:53.808Z,8.50
2019-05-02T00:56:53.782Z,7.60
2019-05-02T00:57:55.639Z,7.50
2019-05-02T00:58:53.729Z,7.70
2019-05-02T00:59:53.705Z,7.40
2019-05-02T01:00:54.851Z,7.60
2019-05-02T01:01:53.653Z,7.60
2019-05-02T01:02:53.629Z,8.00
2019-05-02T01:03:53.875Z,8.70
2019-05-02T01:04:53.576Z,8.00
2019-05-02T01:05:53.552Z,8.00
2019-05-02T01:06:53.526Z,8.20
2019-05-02T01:07:55.960Z,7.60
2019-05-02T01:08:53.475Z,7.80
2019-05-02T01:09:53.449Z,7.60
2019-05-02T01:10:56.966Z,8.40
2019-05-02T01:11:53.398Z,8.10
2019-05-02T01:12:53.376Z,8.40
2019-05-02T01:13:55.666Z,8.30
2019-05-02T01:14:54.075Z,8.30
2019-05-02T01:15:53.296Z,8.00
2019-05-02T01:16:54.309Z,7.60
2019-05-02T01:17:53.244Z,7.60
2019-05-02T01:18:53.219Z,8.20
2019-05-02T01:19:53.194Z,8.10
2019-05-02T01:20:53.168Z,8.20
2019-05-02T01:21:53.144Z,7.90
2019-05-02T01:22:53.673Z,7.60
2019-05-02T01:23:53.091Z,8.40
2019-05-02T01:24:53.066Z,8.00
2019-05-02T01:25:54.554Z,7.90
2019-05-02T01:26:53.014Z,7.90
2019-05-02T01:27:52.987Z,8.30
2019-05-02T01:28:54.287Z,7.80
2019-05-02T01:29:52.936Z,8.10
2019-05-02T01:30:53.661Z,8.30
2019-05-02T01:31:54.741Z,8.50
2019-05-02T01:32:52.859Z,8.70
2019-05-02T01:33:52.833Z,8.50
2019-05-02T01:34:54.564Z,8.30
2019-05-02T01:35:52.782Z,8.60
2019-05-02T01:36:52.756Z,8.50
2019-05-02T01:37:54.918Z,8.40
2019-05-02T01:38:52.704Z,8.70
2019-05-02T01:39:52.680Z,8.20
2019-05-02T01:40:54.519Z,8.10
2019-05-02T01:41:52.626Z,7.60
2019-05-02T01:42:52.601Z,7.50
2019-05-02T01:43:54.962Z,7.80
2019-05-02T01:44:52.550Z,8.00
2019-05-02T01:45:52.524Z,8.30
2019-05-02T01:46:53.958Z,8.10
2019-05-02T01:47:52.473Z,8.00
2019-05-02T01:48:52.448Z,8.40
2019-05-02T01:49:57.156Z,8.20
2019-05-02T01:50:52.395Z,8.20
2019-05-02T01:51:52.370Z,8.60
2019-05-02T01:52:53.774Z,8.20
2019-05-02T01:53:52.316Z,8.70
2019-05-02T01:54:52.293Z,7.90
2019-05-02T01:55:57.588Z,8.20
2019-05-02T01:56:52.241Z,8.90
2019-05-02T01:57:52.216Z,9.10
2019-05-02T01:58:53.020Z,8.30
2019-05-02T01:59:52.163Z,8.20
2019-05-02T02:00:52.139Z,8.40
2019-05-02T02:01:53.317Z,8.20
2019-05-02T02:02:52.086Z,8.90
2019-05-02T02:03:52.060Z,8.60
2019-05-02T02:04:56.476Z,8.20
2019-05-02T02:05:52.008Z,7.50
2019-05-02T02:06:51.982Z,7.80
2019-05-02T02:07:55.557Z,8.10
2019-05-02T02:08:51.931Z,7.90
2019-05-02T02:09:51.907Z,7.30
2019-05-02T02:10:56.134Z,8.40
2019-05-02T02:11:51.854Z,8.30
2019-05-02T02:13:03.551Z,7.70
2019-05-02T02:13:51.802Z,8.40
2019-05-02T02:14:53.639Z,8.10
2019-05-02T02:15:51.751Z,8.00
2019-05-02T02:16:51.725Z,8.10
2019-05-02T02:17:52.649Z,8.10
2019-05-02T02:18:51.676Z,8.40
2019-05-02T02:19:51.646Z,8.10
2019-05-02T02:20:51.621Z,8.90
2019-05-02T02:21:51.595Z,8.50
2019-05-02T02:22:51.569Z,8.30
2019-05-02T02:23:51.545Z,8.70
2019-05-02T02:24:51.519Z,7.60
2019-05-02T02:25:51.491Z,8.70
2019-05-02T02:26:51.465Z,8.00
2019-05-02T02:27:54.878Z,7.60
2019-05-02T02:28:51.414Z,7.70
2019-05-02T02:29:51.387Z,8.30
2019-05-02T02:30:51.362Z,8.30
2019-05-02T02:31:51.335Z,7.70
2019-05-02T02:32:51.311Z,7.40
2019-05-02T02:33:51.283Z,7.70
2019-05-02T02:34:51.263Z,8.20
2019-05-02T02:35:52.212Z,9.10
2019-05-02T02:36:51.207Z,8.20
2019-05-02T02:37:52.906Z,8.10
2019-05-02T02:38:51.915Z,8.00
2019-05-02T02:39:54.271Z,7.60
2019-05-02T02:40:51.105Z,8.10
2019-05-02T02:41:52.100Z,8.60
2019-05-02T02:42:51.051Z,8.50
2019-05-02T02:43:54.608Z,8.60
2019-05-02T02:44:50.999Z,8.60
2019-05-02T02:45:51.879Z,8.30
2019-05-02T02:46:50.946Z,8.60
2019-05-02T02:47:53.057Z,8.60
2019-05-02T02:48:50.895Z,8.80
2019-05-02T02:49:56.075Z,8.40
2019-05-02T02:50:50.843Z,8.00
2019-05-02T02:51:50.817Z,8.30
2019-05-02T02:52:50.791Z,9.10
2019-05-02T02:54:03.095Z,9.00
2019-05-02T02:54:50.737Z,8.10
2019-05-02T02:56:01.181Z,8.40
2019-05-02T02:56:50.686Z,8.60
2019-05-02T02:57:50.658Z,9.00
2019-05-02T02:58:50.634Z,8.30
2019-05-02T02:59:50.607Z,8.40
2019-05-02T03:00:52.083Z,8.20
2019-05-02T03:01:50.556Z,9.30
2019-05-02T03:02:50.616Z,8.90
2019-05-02T03:03:50.503Z,8.90
2019-05-02T03:04:50.479Z,8.40
2019-05-02T03:05:50.454Z,8.70
2019-05-02T03:06:51.175Z,9.10
2019-05-02T03:07:50.397Z,9.30
2019-05-02T03:08:50.373Z,9.70
2019-05-02T03:09:50.344Z,9.40
2019-05-02T03:10:50.318Z,9.10
2019-05-02T03:11:50.297Z,9.70
2019-05-02T03:12:50.267Z,9.60
2019-05-02T03:13:53.467Z,8.60
2019-05-02T03:14:50.218Z,8.70
2019-05-02T03:15:50.189Z,9.20
2019-05-02T03:16:50.160Z,9.60
2019-05-02T03:17:50.133Z,9.90
2019-05-02T03:18:50.115Z,10.10
2019-05-02T03:19:54.477Z,9.70
2019-05-02T03:20:50.056Z,9.80
2019-05-02T03:21:54.355Z,9.00
2019-05-02T03:22:50.002Z,8.90
2019-05-02T03:24:01.367Z,9.80
2019-05-02T03:24:49.950Z,9.70
2019-05-02T03:25:51.396Z,9.00
2019-05-02T03:26:55.434Z,9.30
2019-05-02T03:27:49.871Z,9.30
2019-05-02T03:28:57.644Z,9.30
2019-05-02T03:29:49.816Z,9.60
2019-05-02T03:30:49.797Z,10.20
2019-05-02T03:31:49.789Z,9.80
2019-05-02T03:33:02.673Z,9.60
2019-05-02T03:33:56.684Z,9.40
2019-05-02T03:34:53.757Z,9.70
2019-05-02T03:35:49.716Z,10.20
2019-05-02T03:36:49.633Z,9.60
2019-05-02T03:37:51.456Z,10.00
2019-05-02T03:38:49.581Z,8.90
2019-05-02T03:39:57.267Z,9.80
2019-05-02T03:40:49.528Z,9.40
2019-05-02T03:41:55.417Z,9.80
2019-05-02T03:42:49.477Z,9.60
2019-05-02T03:43:49.465Z,9.20
2019-05-02T03:44:56.912Z,9.50
2019-05-02T03:45:49.394Z,9.60
2019-05-02T03:46:54.192Z,9.70
2019-05-02T03:47:49.343Z,9.90
2019-05-02T03:48:49.317Z,9.80
2019-05-02T03:49:51.910Z,9.20
2019-05-02T03:50:49.262Z,9.30
2019-05-02T03:51:49.240Z,9.40
2019-05-02T03:52:49.211Z,8.50
2019-05-02T03:53:49.183Z,9.40
2019-05-02T03:54:52.154Z,9.30
2019-05-02T03:55:49.132Z,9.60
2019-05-02T03:56:51.112Z,8.90
2019-05-02T03:57:49.078Z,8.60
2019-05-02T03:58:56.342Z,8.60
2019-05-02T03:59:49.789Z,9.40
2019-05-02T04:01:00.534Z,9.00
2019-05-02T04:01:48.974Z,9.00
2019-05-02T04:02:59.066Z,8.50
2019-05-02T04:03:48.920Z,8.50
2019-05-02T04:04:54.497Z,8.90
2019-05-02T04:05:48.865Z,8.50
2019-05-02T04:06:54.966Z,9.00
2019-05-02T04:07:48.814Z,9.30
2019-05-02T04:08:58.689Z,9.40
2019-05-02T04:09:48.760Z,9.50
2019-05-02T04:10:52.529Z,9.10
2019-05-02T04:11:48.707Z,9.70
2019-05-02T04:12:53.122Z,9.70
2019-05-02T04:13:48.653Z,9.30
2019-05-02T04:14:55.142Z,9.50
2019-05-02T04:15:48.601Z,8.90
2019-05-02T04:16:54.662Z,9.10
2019-05-02T04:17:48.548Z,9.30
2019-05-02T04:18:55.811Z,8.70
2019-05-02T04:19:48.495Z,9.00
2019-05-02T04:20:49.730Z,8.90
2019-05-02T04:21:52.655Z,9.40
2019-05-02T04:22:49.108Z,9.40
2019-05-02T04:23:48.398Z,9.40
2019-05-02T04:24:54.392Z,9.20
2019-05-02T04:25:48.341Z,9.20
2019-05-02T04:26:53.790Z,9.70
2019-05-02T04:27:48.285Z,8.90
2019-05-02T04:28:51.715Z,9.50
2019-05-02T04:29:48.243Z,8.80
2019-05-02T04:30:51.138Z,9.30
2019-05-02T04:31:48.179Z,8.90
2019-05-02T04:32:49.795Z,9.20
2019-05-02T04:33:48.126Z,9.50
2019-05-02T04:34:54.956Z,9.20
2019-05-02T04:35:48.074Z,9.60
2019-05-02T04:36:59.891Z,8.60
2019-05-02T04:37:48.020Z,9.60
2019-05-02T04:38:52.163Z,9.00
2019-05-02T04:39:49.109Z,9.80
2019-05-02T04:40:49.571Z,10.10
2019-05-02T04:41:48.605Z,10.40
2019-05-02T04:42:53.451Z,9.50
2019-05-02T04:43:57.311Z,9.60
2019-05-02T04:45:09.451Z,9.90
2019-05-02T04:45:56.190Z,9.70
2019-05-02T04:46:48.890Z,10.00
2019-05-02T04:47:57.469Z,9.30
2019-05-02T04:48:49.717Z,9.30
2019-05-02T04:49:51.567Z,9.50
2019-05-02T04:50:48.314Z,9.50
2019-05-02T04:51:59.847Z,9.70
2019-05-02T04:52:53.637Z,9.50
2019-05-02T04:53:49.763Z,9.10
2019-05-02T04:54:48.837Z,10.00
2019-05-02T04:55:52.476Z,9.30
2019-05-02T04:56:53.114Z,9.80
2019-05-02T04:57:50.846Z,9.70
2019-05-02T04:58:49.316Z,9.80
2019-05-02T04:59:50.055Z,9.80
2019-05-02T05:00:53.615Z,9.20
2019-05-02T05:01:54.663Z,10.00
2019-05-02T05:02:48.460Z,10.10
2019-05-02T05:03:51.257Z,10.60
2019-05-02T05:04:49.452Z,10.00
2019-05-02T05:05:48.245Z,10.80
2019-05-02T05:06:55.945Z,11.00
2019-05-02T05:07:49.444Z,10.00
2019-05-02T05:08:48.271Z,10.90
2019-05-02T05:09:56.994Z,10.10
2019-05-02T05:10:47.966Z,11.30
2019-05-02T05:11:48.198Z,11.50
2019-05-02T05:12:48.001Z,11.20
2019-05-02T05:13:52.450Z,11.40
2019-05-02T05:14:47.478Z,11.20
2019-05-02T05:15:51.261Z,11.20
2019-05-02T05:16:51.661Z,10.90
2019-05-02T05:17:47.887Z,11.10
2019-05-02T05:18:49.501Z,11.40
2019-05-02T05:19:48.721Z,11.40
2019-05-02T05:20:53.002Z,11.50
2019-05-02T05:21:47.684Z,11.40
2019-05-02T05:22:47.906Z,11.10
2019-05-02T05:23:47.214Z,10.80
2019-05-02T05:24:47.699Z,11.30
2019-05-02T05:25:47.880Z,13.80
2019-05-02T05:26:47.673Z,11.80
2019-05-02T05:27:47.910Z,10.80
2019-05-02T05:28:47.678Z,11.10
2019-05-02T05:29:48.575Z,11.10
2019-05-02T05:30:51.889Z,11.20
2019-05-02T05:31:48.263Z,10.80
2019-05-02T05:32:47.881Z,10.90
2019-05-02T05:33:47.861Z,10.50
2019-05-02T05:34:47.788Z,10.40
2019-05-02T05:35:48.878Z,10.30
2019-05-02T05:36:48.159Z,10.60
2019-05-02T05:37:49.136Z,10.80
2019-05-02T05:38:47.836Z,10.30
2019-05-02T05:39:48.748Z,11.60
2019-05-02T05:40:47.900Z,10.90
2019-05-02T05:41:50.880Z,10.60
2019-05-02T05:42:48.111Z,10.70
2019-05-02T05:43:49.991Z,10.40
2019-05-02T05:44:48.372Z,10.90
2019-05-02T05:45:53.319Z,11.00
2019-05-02T05:46:48.913Z,10.00
2019-05-02T05:47:47.911Z,10.50
2019-05-02T05:48:47.637Z,10.90
2019-05-02T05:49:47.765Z,10.70
2019-05-02T05:50:47.796Z,10.60
2019-05-02T05:51:47.714Z,10.30
2019-05-02T05:52:47.287Z,10.30
2019-05-02T05:53:47.860Z,10.20
2019-05-02T05:54:47.402Z,10.50
2019-05-02T05:55:47.335Z,10.80
2019-05-02T05:56:48.017Z,10.00
2019-05-02T05:57:47.597Z,11.20
2019-05-02T05:58:50.513Z,10.30
2019-05-02T05:59:48.014Z,11.00
2019-05-02T06:00:53.611Z,10.90
2019-05-02T06:01:48.355Z,10.40
2019-05-02T06:02:53.895Z,10.90
2019-05-02T06:03:47.413Z,10.60
2019-05-02T06:04:47.727Z,10.90
2019-05-02T06:05:47.637Z,10.10
2019-05-02T06:06:47.856Z,11.20
2019-05-02T06:07:47.401Z,10.60
2019-05-02T06:08:49.160Z,10.50
2019-05-02T06:09:45.676Z,11.20
2019-05-02T06:10:45.672Z,10.70
2019-05-02T06:11:45.626Z,10.70
2019-05-02T06:12:45.603Z,11.40
2019-05-02T06:13:48.944Z,10.70
2019-05-02T06:14:46.497Z,10.60
2019-05-02T06:15:45.989Z,9.90
2019-05-02T06:16:46.787Z,10.70
2019-05-02T06:17:45.479Z,11.10
2019-05-02T06:18:45.455Z,10.70
2019-05-02T06:19:53.468Z,10.40
2019-05-02T06:20:45.407Z,10.80
2019-05-02T06:21:46.723Z,11.00
2019-05-02T06:22:45.357Z,11.50
2019-05-02T06:23:45.334Z,10.80
2019-05-02T06:24:46.205Z,11.20
2019-05-02T06:25:45.285Z,10.60
2019-05-02T06:26:49.757Z,10.50
2019-05-02T06:27:45.235Z,11.40
2019-05-02T06:28:45.211Z,11.10
2019-05-02T06:29:45.187Z,10.90
2019-05-02T06:30:45.164Z,11.50
2019-05-02T06:31:45.140Z,11.30
2019-05-02T06:32:45.115Z,10.60
2019-05-02T06:33:45.090Z,11.70
2019-05-02T06:34:47.561Z,10.70
2019-05-02T06:35:45.042Z,10.50
2019-05-02T06:36:45.018Z,10.50
2019-05-02T06:37:45.244Z,10.60
2019-05-02T06:38:44.970Z,10.90
2019-05-02T06:39:44.949Z,10.10
2019-05-02T06:40:46.611Z,10.10
2019-05-02T06:41:44.897Z,10.10
2019-05-02T06:42:44.873Z,10.50
2019-05-02T06:43:46.947Z,10.10
2019-05-02T06:44:44.826Z,10.00
2019-05-02T06:45:44.802Z,9.90
2019-05-02T06:46:44.778Z,9.80
2019-05-02T06:47:44.753Z,9.40
2019-05-02T06:48:48.254Z,9.40
2019-05-02T06:49:44.705Z,10.10
2019-05-02T06:50:44.682Z,10.00
2019-05-02T06:51:44.657Z,9.30
2019-05-02T06:52:44.634Z,9.20
2019-05-02T06:53:47.067Z,9.70
2019-05-02T06:54:44.585Z,9.80
2019-05-02T06:55:44.561Z,9.50
2019-05-02T06:56:48.004Z,10.40
2019-05-02T06:57:44.515Z,10.00
2019-05-02T06:58:44.489Z,10.80
2019-05-02T06:59:44.466Z,11.00
2019-05-02T07:00:56.466Z,9.60
2019-05-02T07:01:44.419Z,9.20
2019-05-02T07:02:44.395Z,9.50
2019-05-02T07:03:46.333Z,8.90
2019-05-02T07:04:44.353Z,9.30
2019-05-02T07:05:44.325Z,9.10
2019-05-02T07:06:57.182Z,9.90
2019-05-02T07:07:44.279Z,10.20
2019-05-02T07:08:44.261Z,10.00
2019-05-02T07:09:44.235Z,9.40
2019-05-02T07:10:45.146Z,8.90
2019-05-02T07:11:56.673Z,9.80
2019-05-02T07:12:46.192Z,9.20
2019-05-02T07:13:44.137Z,10.00
2019-05-02T07:14:45.786Z,10.20
2019-05-02T07:15:44.090Z,10.20
2019-05-02T07:16:44.067Z,10.10
2019-05-02T07:17:44.047Z,9.80
2019-05-02T07:18:47.473Z,10.10
2019-05-02T07:19:43.997Z,10.30
2019-05-02T07:20:43.974Z,11.10
2019-05-02T07:21:43.951Z,9.60
2019-05-02T07:22:45.566Z,9.70
2019-05-02T07:23:43.907Z,9.80
2019-05-02T07:24:43.884Z,9.80
2019-05-02T07:25:44.215Z,9.70
2019-05-02T07:26:43.836Z,8.80
2019-05-02T07:27:43.814Z,9.50
2019-05-02T07:28:45.561Z,9.30
2019-05-02T07:29:43.769Z,9.90
2019-05-02T07:30:43.747Z,9.70
2019-05-02T07:31:47.741Z,9.50
2019-05-02T07:32:43.700Z,9.70
2019-05-02T07:33:43.677Z,9.60
2019-05-02T07:34:44.269Z,9.90
2019-05-02T07:35:43.632Z,9.70
2019-05-02T07:36:43.609Z,9.40
2019-05-02T07:37:44.098Z,9.20
2019-05-02T07:38:43.564Z,9.40
2019-05-02T07:39:43.541Z,9.50
2019-05-02T07:40:43.519Z,9.10
2019-05-02T07:41:43.496Z,9.80
2019-05-02T07:42:43.474Z,9.50
2019-05-02T07:43:43.452Z,9.10
2019-05-02T07:44:43.429Z,9.20
2019-05-02T07:45:45.309Z,9.10
2019-05-02T07:46:51.660Z,9.70
2019-05-02T07:47:43.364Z,9.40
2019-05-02T07:48:43.700Z,9.50
2019-05-02T07:49:43.319Z,9.20
2019-05-02T07:50:46.498Z,8.70
2019-05-02T07:51:43.276Z,9.20
2019-05-02T07:52:43.253Z,9.10
2019-05-02T07:53:44.595Z,9.80
2019-05-02T07:54:43.209Z,10.00
2019-05-02T07:55:43.187Z,9.40
2019-05-02T07:56:43.166Z,9.00
2019-05-02T07:57:43.143Z,9.70
2019-05-02T07:58:46.924Z,9.10
2019-05-02T07:59:43.101Z,8.80
2019-05-02T08:00:43.078Z,9.20
2019-05-02T08:01:44.916Z,8.80
2019-05-02T08:02:43.034Z,9.20
2019-05-02T08:03:43.012Z,8.90
2019-05-02T08:04:44.138Z,9.10
2019-05-02T08:05:42.968Z,9.50
2019-05-02T08:06:44.687Z,8.80
2019-05-02T08:07:42.925Z,9.10
2019-05-02T08:08:42.904Z,10.00
2019-05-02T08:09:44.087Z,9.90
2019-05-02T08:10:42.860Z,9.60
2019-05-02T08:11:42.838Z,9.70
2019-05-02T08:12:42.818Z,9.30
2019-05-02T08:13:42.795Z,9.50
2019-05-02T08:14:42.774Z,9.50
2019-05-02T08:15:45.569Z,9.30
2019-05-02T08:16:42.730Z,9.80
2019-05-02T08:17:42.708Z,9.50
2019-05-02T08:18:42.688Z,9.40
2019-05-02T08:19:43.295Z,10.10
2019-05-02T08:20:42.644Z,9.90
2019-05-02T08:21:42.622Z,9.60
2019-05-02T08:22:43.987Z,9.40
2019-05-02T08:23:42.579Z,9.80
2019-05-02T08:24:42.558Z,9.70
2019-05-02T08:25:45.383Z,9.60
2019-05-02T08:26:43.265Z,9.80
2019-05-02T08:27:42.495Z,9.20
2019-05-02T08:28:42.480Z,9.30
2019-05-02T08:29:42.451Z,9.40
2019-05-02T08:30:42.433Z,9.30
2019-05-02T08:31:42.408Z,9.40
2019-05-02T08:32:42.388Z,9.70
2019-05-02T08:33:42.366Z,9.40
2019-05-02T08:34:46.272Z,9.20
2019-05-02T08:35:42.325Z,9.80
2019-05-02T08:36:42.306Z,9.80
2019-05-02T08:37:43.077Z,9.90
2019-05-02T08:38:42.261Z,9.00
2019-05-02T08:39:42.241Z,8.90
2019-05-02T08:40:47.591Z,9.40
2019-05-02T08:41:42.199Z,9.50
2019-05-02T08:42:42.178Z,10.50
2019-05-02T08:43:44.935Z,10.80
2019-05-02T08:44:50.723Z,9.90
2019-05-02T08:45:42.116Z,9.60
2019-05-02T08:46:46.218Z,9.40
2019-05-02T08:47:42.081Z,9.30
2019-05-02T08:48:43.755Z,9.70
2019-05-02T08:49:42.575Z,9.30
2019-05-02T08:50:42.012Z,8.90
2019-05-02T08:51:41.992Z,8.80
2019-05-02T08:52:42.764Z,9.20
2019-05-02T08:53:42.701Z,8.90
2019-05-02T08:54:41.930Z,9.40
2019-05-02T08:55:45.336Z,8.20
2019-05-02T08:56:41.891Z,8.80
2019-05-02T08:57:41.869Z,8.50
2019-05-02T08:58:44.866Z,8.50
2019-05-02T08:59:41.827Z,8.00
2019-05-02T09:00:41.808Z,8.40
2019-05-02T09:01:44.694Z,8.10
2019-05-02T09:02:42.193Z,8.90
2019-05-02T09:03:54.847Z,8.20
2019-05-02T09:04:41.728Z,8.50
2019-05-02T09:05:46.098Z,8.20
2019-05-02T09:06:41.686Z,9.20
2019-05-02T09:07:43.014Z,9.00
2019-05-02T09:08:41.646Z,9.20
2019-05-02T09:09:43.878Z,8.30
2019-05-02T09:10:42.079Z,8.50
2019-05-02T09:11:43.776Z,8.80
2019-05-02T09:12:45.336Z,8.80
2019-05-02T09:13:42.190Z,8.00
2019-05-02T09:14:42.590Z,8.30
2019-05-02T09:15:49.739Z,8.30
2019-05-02T09:16:42.738Z,8.40
2019-05-02T09:17:44.624Z,9.10
2019-05-02T09:18:50.653Z,9.30
2019-05-02T09:19:42.950Z,8.80
2019-05-02T09:20:42.359Z,8.50
2019-05-02T09:21:42.898Z,9.20
2019-05-02T09:22:41.889Z,8.40
2019-05-02T09:23:43.898Z,8.00
2019-05-02T09:24:43.059Z,8.80
2019-05-02T09:25:43.017Z,8.30
2019-05-02T09:26:42.587Z,8.00
2019-05-02T09:27:42.060Z,8.40
2019-05-02T09:28:42.253Z,9.10
2019-05-02T09:29:44.420Z,9.20
2019-05-02T09:30:41.905Z,9.10
2019-05-02T09:31:44.185Z,8.30
2019-05-02T09:32:41.920Z,9.10
2019-05-02T09:33:42.378Z,8.70
2019-05-02T09:34:42.401Z,8.60
2019-05-02T09:35:42.164Z,8.60
2019-05-02T09:36:41.854Z,8.70
2019-05-02T09:37:41.987Z,8.40
2019-05-02T09:38:42.492Z,9.40
2019-05-02T09:39:41.521Z,8.50
2019-05-02T09:40:42.594Z,9.50
2019-05-02T09:41:41.920Z,9.80
2019-05-02T09:42:43.149Z,9.60
2019-05-02T09:43:42.621Z,9.10
2019-05-02T09:44:42.560Z,9.40
2019-05-02T09:45:43.223Z,9.10
2019-05-02T09:46:42.744Z,10.60
2019-05-02T09:47:55.382Z,10.10
2019-05-02T09:48:42.729Z,9.30
2019-05-02T09:49:41.735Z,10.20
2019-05-02T09:50:42.192Z,9.30
2019-05-02T09:51:42.327Z,9.40
2019-05-02T09:52:41.676Z,9.80
2019-05-02T09:53:43.011Z,10.10
2019-05-02T09:54:42.457Z,10.10
2019-05-02T09:55:42.023Z,9.00
2019-05-02T09:56:40.680Z,9.00
2019-05-02T09:57:42.628Z,10.00
2019-05-02T09:58:42.029Z,9.40
2019-05-02T09:59:44.896Z,9.80
2019-05-02T10:00:41.852Z,10.00
2019-05-02T10:01:42.169Z,10.60
2019-05-02T10:02:41.886Z,9.90
2019-05-02T10:03:42.301Z,10.10
2019-05-02T10:04:43.491Z,10.50
2019-05-02T10:05:40.508Z,10.50
2019-05-02T10:06:42.377Z,10.90
2019-05-02T10:07:41.902Z,10.50
2019-05-02T10:08:43.532Z,10.70
2019-05-02T10:09:42.332Z,10.30
2019-05-02T10:10:44.278Z,9.40
2019-05-02T10:11:41.800Z,10.20
2019-05-02T10:12:42.595Z,11.10
2019-05-02T10:13:42.350Z,11.00
2019-05-02T10:14:42.124Z,10.40
2019-05-02T10:15:42.129Z,10.30
2019-05-02T10:16:42.495Z,10.60
2019-05-02T10:17:44.684Z,11.00
2019-05-02T10:18:40.264Z,10.30
2019-05-02T10:19:41.185Z,10.40
2019-05-02T10:20:41.953Z,10.60
2019-05-02T10:21:42.095Z,10.80
2019-05-02T10:22:41.835Z,9.70
2019-05-02T10:23:42.606Z,9.80
2019-05-02T10:24:40.151Z,10.20
2019-05-02T10:25:46.602Z,9.20
2019-05-02T10:26:41.935Z,9.30
2019-05-02T10:27:46.075Z,8.00
2019-05-02T10:28:41.743Z,8.20
2019-05-02T10:29:41.876Z,9.40
2019-05-02T10:30:40.039Z,9.60
2019-05-02T10:31:42.068Z,9.20
2019-05-02T10:32:40.003Z,9.40
2019-05-02T10:33:41.934Z,8.60
2019-05-02T10:34:42.118Z,8.10
2019-05-02T10:35:41.490Z,8.80
2019-05-02T10:36:43.220Z,8.10
2019-05-02T10:37:39.912Z,8.40
2019-05-02T10:38:39.893Z,8.60
2019-05-02T10:39:39.879Z,8.50
2019-05-02T10:40:39.857Z,9.00
2019-05-02T10:41:41.852Z,8.80
2019-05-02T10:42:41.863Z,9.40
2019-05-02T10:43:39.803Z,8.30
2019-05-02T10:44:39.784Z,8.80
2019-05-02T10:45:39.765Z,8.30
2019-05-02T10:46:41.541Z,7.50
2019-05-02T10:47:39.729Z,7.90
2019-05-02T10:48:39.717Z,8.20
2019-05-02T10:49:39.693Z,7.60
2019-05-02T10:50:39.676Z,7.90
2019-05-02T10:51:41.803Z,8.20
2019-05-02T10:52:39.639Z,7.70
2019-05-02T10:53:39.622Z,7.70
2019-05-02T10:54:39.604Z,7.40
2019-05-02T10:55:39.585Z,7.70
2019-05-02T10:56:39.567Z,7.90
2019-05-02T10:57:39.548Z,7.60
2019-05-02T10:58:39.531Z,8.20
2019-05-02T10:59:39.512Z,8.30
2019-05-02T11:00:41.874Z,8.00
2019-05-02T11:01:41.626Z,7.60
2019-05-02T11:02:39.458Z,8.30
2019-05-02T11:03:43.765Z,7.40
2019-05-02T11:04:39.423Z,8.20
2019-05-02T11:05:39.405Z,7.20
2019-05-02T11:06:42.692Z,7.30
2019-05-02T11:07:39.369Z,7.60
2019-05-02T11:08:42.082Z,7.10
2019-05-02T11:09:39.333Z,7.00
2019-05-02T11:10:39.315Z,6.90
2019-05-02T11:11:39.319Z,7.30
2019-05-02T11:12:46.103Z,7.90
2019-05-02T11:13:39.261Z,7.60
2019-05-02T11:14:39.244Z,7.50
2019-05-02T11:15:39.227Z,7.60
2019-05-02T11:16:39.209Z,7.00
2019-05-02T11:17:39.190Z,7.50
2019-05-02T11:18:42.491Z,7.90
2019-05-02T11:19:39.156Z,8.40
2019-05-02T11:20:39.137Z,8.80
2019-05-02T11:21:46.726Z,8.40
2019-05-02T11:22:39.103Z,7.30
2019-05-02T11:23:39.176Z,7.00
2019-05-02T11:24:39.065Z,7.30
2019-05-02T11:25:39.046Z,7.10
2019-05-02T11:26:39.029Z,7.50
2019-05-02T11:27:39.010Z,7.70
2019-05-02T11:28:38.993Z,7.50
2019-05-02T11:29:38.974Z,7.20
2019-05-02T11:30:38.957Z,7.40
2019-05-02T11:31:38.940Z,7.80
2019-05-02T11:32:38.922Z,7.30
2019-05-02T11:33:38.902Z,7.60
2019-05-02T11:34:38.885Z,6.70
2019-05-02T11:35:41.861Z,7.30
2019-05-02T11:36:38.849Z,7.40
2019-05-02T11:37:38.831Z,7.70
2019-05-02T11:38:39.852Z,7.60
2019-05-02T11:39:48.550Z,7.70
2019-05-02T11:40:38.777Z,7.80
2019-05-02T11:41:38.758Z,7.40
2019-05-02T11:42:38.741Z,7.80
2019-05-02T11:43:42.383Z,7.40
2019-05-02T11:44:38.706Z,7.40
2019-05-02T11:45:38.686Z,7.40
2019-05-02T11:46:42.971Z,8.10
2019-05-02T11:47:38.651Z,7.70
2019-05-02T11:48:38.633Z,7.70
2019-05-02T11:49:38.615Z,8.10
2019-05-02T11:50:38.597Z,7.50
2019-05-02T11:51:38.580Z,7.30
2019-05-02T11:52:38.562Z,7.10
2019-05-02T11:53:38.546Z,8.20
2019-05-02T11:54:39.322Z,8.00
2019-05-02T11:55:41.290Z,8.00
2019-05-02T11:56:41.151Z,8.10
2019-05-02T11:57:38.473Z,7.50
2019-05-02T11:58:40.815Z,8.20
2019-05-02T11:59:38.438Z,8.20
2019-05-02T12:00:39.761Z,7.80
2019-05-02T12:01:39.811Z,8.00
2019-05-02T12:02:38.385Z,7.40
2019-05-02T12:03:38.373Z,8.90
2019-05-02T12:04:38.350Z,8.50
2019-05-02T12:05:39.377Z,8.60
2019-05-02T12:06:38.316Z,8.90
2019-05-02T12:07:38.299Z,7.70
2019-05-02T12:08:39.397Z,8.20
2019-05-02T12:09:38.260Z,7.60
2019-05-02T12:10:38.246Z,7.10
2019-05-02T12:11:38.226Z,8.20
2019-05-02T12:12:38.207Z,8.60
2019-05-02T12:13:38.189Z,8.10
2019-05-02T12:14:38.171Z,8.10
2019-05-02T12:15:38.153Z,8.30
2019-05-02T12:16:38.135Z,7.10
2019-05-02T12:17:38.116Z,8.00
2019-05-02T12:18:38.098Z,9.20
2019-05-02T12:19:38.079Z,8.40
2019-05-02T12:20:38.061Z,8.80
2019-05-02T12:21:39.288Z,8.70
2019-05-02T12:22:38.024Z,9.30
2019-05-02T12:23:38.006Z,8.30
2019-05-02T12:24:40.950Z,8.40
2019-05-02T12:25:37.966Z,9.60
2019-05-02T12:26:37.949Z,9.10
2019-05-02T12:27:39.433Z,8.30
2019-05-02T12:28:37.910Z,9.10
2019-05-02T12:29:37.891Z,8.60
2019-05-02T12:30:37.974Z,9.20
2019-05-02T12:31:37.852Z,9.10
2019-05-02T12:32:37.832Z,8.50
2019-05-02T12:33:37.812Z,9.20
2019-05-02T12:34:37.791Z,9.00
2019-05-02T12:35:37.772Z,9.60
2019-05-02T12:36:37.752Z,9.50
2019-05-02T12:37:37.734Z,8.70
2019-05-02T12:38:37.711Z,8.70
2019-05-02T12:39:37.691Z,8.60
2019-05-02T12:40:37.672Z,8.50
2019-05-02T12:41:37.650Z,8.40
2019-05-02T12:42:37.631Z,8.70
2019-05-02T12:43:37.609Z,8.30
2019-05-02T12:44:37.590Z,9.30
2019-05-02T12:45:37.570Z,8.50
2019-05-02T12:46:37.548Z,8.70
2019-05-02T12:47:37.527Z,8.30
2019-05-02T12:48:37.510Z,8.70
2019-05-02T12:49:37.486Z,9.30
2019-05-02T12:50:37.465Z,8.90
2019-05-02T12:51:37.444Z,8.80
2019-05-02T12:52:37.424Z,8.80
2019-05-02T12:53:37.402Z,9.20
2019-05-02T12:54:37.382Z,9.40
2019-05-02T12:55:37.362Z,10.40
2019-05-02T12:56:37.341Z,10.50
2019-05-02T12:57:37.320Z,10.10
2019-05-02T12:58:37.305Z,9.30
2019-05-02T12:59:37.284Z,9.10
2019-05-02T13:00:37.259Z,8.70
2019-05-02T13:01:37.243Z,8.50
2019-05-02T13:02:37.218Z,7.60
2019-05-02T13:03:37.199Z,8.90
2019-05-02T13:04:37.200Z,8.00
2019-05-02T13:05:37.157Z,7.80
2019-05-02T13:06:37.451Z,7.90
2019-05-02T13:07:37.117Z,7.80
2019-05-02T13:08:37.096Z,7.70
2019-05-02T13:09:37.076Z,7.70
2019-05-02T13:10:37.056Z,8.10
2019-05-02T13:11:43.927Z,8.30
2019-05-02T13:12:37.016Z,7.90
2019-05-02T13:13:36.995Z,7.70